sensor_id;sensor_type;location;lat;lon;timestamp;pressure;altitude;pressure_sealevel;temperature;humidity
30875;BME280;17581;43.222;27.924;2023-04-19T00:00:39;100190.88;;;13.73;83.85
30875;BME280;17581;43.222;27.924;2023-04-19T00:03:06;100191.59;;;13.75;83.17
30875;BME280;17581;43.222;27.924;2023-04-19T00:05:31;100187.25;;;13.64;82.39
30875;BME280;17581;43.222;27.924;2023-04-19T00:07:58;100203.31;;;13.66;83.10
30875;BME280;17581;43.222;27.924;2023-04-19T00:10:24;100184.72;;;13.63;82.47
30875;BME280;17581;43.222;27.924;2023-04-19T00:12:49;100185.72;;;13.62;82.68
30875;BME280;17581;43.222;27.924;2023-04-19T00:15:15;100183.31;;;13.59;82.88
30875;BME280;17581;43.222;27.924;2023-04-19T00:17:40;100186.66;;;13.53;83.15
30875;BME280;17581;43.222;27.924;2023-04-19T00:20:06;100179.84;;;13.49;83.99
30875;BME280;17581;43.222;27.924;2023-04-19T00:22:32;100185.41;;;13.47;83.83
30875;BME280;17581;43.222;27.924;2023-04-19T00:24:58;100175.84;;;13.53;82.49
30875;BME280;17581;43.222;27.924;2023-04-19T00:27:23;100174.84;;;13.54;82.60
30875;BME280;17581;43.222;27.924;2023-04-19T00:29:49;100167.50;;;13.46;83.83
30875;BME280;17581;43.222;27.924;2023-04-19T00:32:15;100173.38;;;13.42;84.34
30875;BME280;17581;43.222;27.924;2023-04-19T00:34:41;100171.59;;;13.33;84.45
30875;BME280;17581;43.222;27.924;2023-04-19T00:37:08;100178.06;;;13.22;84.65
30875;BME280;17581;43.222;27.924;2023-04-19T00:39:34;100171.56;;;13.15;85.15
30875;BME280;17581;43.222;27.924;2023-04-19T00:41:59;100186.63;;;13.18;86.20
30875;BME280;17581;43.222;27.924;2023-04-19T00:44:26;100188.91;;;13.13;86.45
30875;BME280;17581;43.222;27.924;2023-04-19T00:46:52;100181.13;;;13.09;86.80
30875;BME280;17581;43.222;27.924;2023-04-19T00:49:19;100183.81;;;13.09;87.45
30875;BME280;17581;43.222;27.924;2023-04-19T00:51:45;100175.13;;;13.16;87.47
30875;BME280;17581;43.222;27.924;2023-04-19T00:54:12;100186.16;;;13.22;87.60
30875;BME280;17581;43.222;27.924;2023-04-19T00:56:37;100180.41;;;13.07;87.66
30875;BME280;17581;43.222;27.924;2023-04-19T00:59:03;100190.94;;;13.11;88.64
30875;BME280;17581;43.222;27.924;2023-04-19T01:01:30;100182.00;;;13.00;89.98
30875;BME280;17581;43.222;27.924;2023-04-19T01:03:56;100180.97;;;12.84;90.44
30875;BME280;17581;43.222;27.924;2023-04-19T01:06:21;100174.91;;;12.72;92.13
30875;BME280;17581;43.222;27.924;2023-04-19T01:08:47;100152.41;;;12.54;93.50
30875;BME280;17581;43.222;27.924;2023-04-19T01:11:12;100168.72;;;12.62;93.59
30875;BME280;17581;43.222;27.924;2023-04-19T01:13:38;100169.41;;;12.64;94.51
30875;BME280;17581;43.222;27.924;2023-04-19T01:16:04;100165.31;;;12.60;95.00
30875;BME280;17581;43.222;27.924;2023-04-19T01:18:30;100160.63;;;12.62;95.65
30875;BME280;17581;43.222;27.924;2023-04-19T01:21:02;100166.47;;;12.57;95.95
30875;BME280;17581;43.222;27.924;2023-04-19T01:23:27;100160.09;;;12.49;96.46
30875;BME280;17581;43.222;27.924;2023-04-19T01:25:53;100167.06;;;12.51;96.88
30875;BME280;17581;43.222;27.924;2023-04-19T01:28:18;100156.28;;;12.42;97.43
30875;BME280;17581;43.222;27.924;2023-04-19T01:30:44;100169.63;;;12.53;98.08
30875;BME280;17581;43.222;27.924;2023-04-19T01:33:09;100167.59;;;12.55;98.18
30875;BME280;17581;43.222;27.924;2023-04-19T01:35:34;100162.78;;;12.59;98.59
30875;BME280;17581;43.222;27.924;2023-04-19T01:38:00;100151.47;;;12.45;98.88
30875;BME280;17581;43.222;27.924;2023-04-19T01:40:26;100160.41;;;12.46;99.28
30875;BME280;17581;43.222;27.924;2023-04-19T01:42:51;100144.75;;;12.59;99.85
30875;BME280;17581;43.222;27.924;2023-04-19T01:45:17;100155.22;;;12.62;100.00
30875;BME280;17581;43.222;27.924;2023-04-19T01:47:43;100144.28;;;12.64;99.93
30875;BME280;17581;43.222;27.924;2023-04-19T01:50:08;100157.13;;;12.79;99.60
30875;BME280;17581;43.222;27.924;2023-04-19T01:52:34;100154.13;;;12.82;99.03
30875;BME280;17581;43.222;27.924;2023-04-19T01:54:59;100132.84;;;12.79;98.57
30875;BME280;17581;43.222;27.924;2023-04-19T01:57:25;100155.53;;;12.86;98.77
30875;BME280;17581;43.222;27.924;2023-04-19T01:59:52;100148.72;;;12.82;98.53
30875;BME280;17581;43.222;27.924;2023-04-19T02:02:17;100159.91;;;12.87;98.65
30875;BME280;17581;43.222;27.924;2023-04-19T02:04:43;100161.63;;;12.88;98.60
30875;BME280;17581;43.222;27.924;2023-04-19T02:07:08;100165.31;;;12.87;98.38
30875;BME280;17581;43.222;27.924;2023-04-19T02:09:37;100162.31;;;12.90;98.47
30875;BME280;17581;43.222;27.924;2023-04-19T02:12:03;100162.25;;;13.00;98.44
30875;BME280;17581;43.222;27.924;2023-04-19T02:14:29;100154.97;;;12.83;98.44
30875;BME280;17581;43.222;27.924;2023-04-19T02:16:55;100151.50;;;12.90;98.50
30875;BME280;17581;43.222;27.924;2023-04-19T02:19:20;100149.22;;;12.95;98.49
30875;BME280;17581;43.222;27.924;2023-04-19T02:21:46;100146.28;;;13.06;98.06
30875;BME280;17581;43.222;27.924;2023-04-19T02:24:11;100147.97;;;13.17;97.42
30875;BME280;17581;43.222;27.924;2023-04-19T02:26:38;100136.31;;;13.17;96.28
30875;BME280;17581;43.222;27.924;2023-04-19T02:29:04;100132.63;;;13.18;96.12
30875;BME280;17581;43.222;27.924;2023-04-19T02:31:29;100133.56;;;13.26;95.92
30875;BME280;17581;43.222;27.924;2023-04-19T02:33:55;100137.09;;;13.27;95.63
30875;BME280;17581;43.222;27.924;2023-04-19T02:36:20;100144.19;;;13.28;95.16
30875;BME280;17581;43.222;27.924;2023-04-19T02:38:46;100136.81;;;13.30;94.90
30875;BME280;17581;43.222;27.924;2023-04-19T02:41:11;100134.47;;;13.35;95.43
30875;BME280;17581;43.222;27.924;2023-04-19T02:43:36;100137.31;;;13.33;95.02
30875;BME280;17581;43.222;27.924;2023-04-19T02:46:02;100142.19;;;13.30;94.81
30875;BME280;17581;43.222;27.924;2023-04-19T02:48:28;100111.09;;;13.08;94.70
30875;BME280;17581;43.222;27.924;2023-04-19T02:50:53;100135.78;;;13.13;95.00
30875;BME280;17581;43.222;27.924;2023-04-19T02:53:19;100119.75;;;13.12;95.34
30875;BME280;17581;43.222;27.924;2023-04-19T02:55:44;100120.16;;;13.07;94.89
30875;BME280;17581;43.222;27.924;2023-04-19T02:58:10;100133.31;;;12.92;95.01
30875;BME280;17581;43.222;27.924;2023-04-19T03:00:35;100124.59;;;12.81;95.54
30875;BME280;17581;43.222;27.924;2023-04-19T03:03:01;100135.72;;;12.95;96.53
30875;BME280;17581;43.222;27.924;2023-04-19T03:05:28;100128.25;;;12.89;97.38
30875;BME280;17581;43.222;27.924;2023-04-19T03:07:54;100139.28;;;12.96;97.52
30875;BME280;17581;43.222;27.924;2023-04-19T03:10:19;100129.03;;;12.99;97.48
30875;BME280;17581;43.222;27.924;2023-04-19T03:12:45;100142.91;;;13.04;97.00
30875;BME280;17581;43.222;27.924;2023-04-19T03:15:10;100135.81;;;13.03;96.05
30875;BME280;17581;43.222;27.924;2023-04-19T03:17:36;100134.06;;;13.12;95.75
30875;BME280;17581;43.222;27.924;2023-04-19T03:20:02;100130.25;;;13.15;95.55
30875;BME280;17581;43.222;27.924;2023-04-19T03:22:27;100131.38;;;13.12;94.90
30875;BME280;17581;43.222;27.924;2023-04-19T03:24:52;100132.69;;;13.08;94.48
30875;BME280;17581;43.222;27.924;2023-04-19T03:27:18;100133.56;;;12.99;93.63
30875;BME280;17581;43.222;27.924;2023-04-19T03:29:43;100136.53;;;13.05;93.69
30875;BME280;17581;43.222;27.924;2023-04-19T03:32:09;100124.44;;;13.09;93.83
30875;BME280;17581;43.222;27.924;2023-04-19T03:34:34;100115.59;;;13.07;94.02
30875;BME280;17581;43.222;27.924;2023-04-19T03:36:59;100130.63;;;13.20;94.16
30875;BME280;17581;43.222;27.924;2023-04-19T03:39:25;100136.00;;;13.20;93.75
30875;BME280;17581;43.222;27.924;2023-04-19T03:41:50;100136.16;;;13.18;93.52
30875;BME280;17581;43.222;27.924;2023-04-19T03:44:16;100134.00;;;13.22;93.67
30875;BME280;17581;43.222;27.924;2023-04-19T03:46:41;100127.97;;;13.28;93.28
30875;BME280;17581;43.222;27.924;2023-04-19T03:49:07;100127.06;;;13.37;93.35
30875;BME280;17581;43.222;27.924;2023-04-19T03:51:32;100135.38;;;13.43;93.42
30875;BME280;17581;43.222;27.924;2023-04-19T03:53:57;100130.28;;;13.40;93.47
30875;BME280;17581;43.222;27.924;2023-04-19T03:56:23;100144.03;;;13.47;93.04
30875;BME280;17581;43.222;27.924;2023-04-19T03:58:51;100136.09;;;13.45;92.90
30875;BME280;17581;43.222;27.924;2023-04-19T04:01:21;100143.19;;;13.46;92.85
30875;BME280;17581;43.222;27.924;2023-04-19T04:03:46;100130.69;;;13.45;92.83
30875;BME280;17581;43.222;27.924;2023-04-19T04:06:12;100132.69;;;13.43;92.62
30875;BME280;17581;43.222;27.924;2023-04-19T04:08:38;100133.22;;;13.47;91.48
30875;BME280;17581;43.222;27.924;2023-04-19T04:11:03;100129.84;;;13.45;91.41
30875;BME280;17581;43.222;27.924;2023-04-19T04:13:28;100129.53;;;13.48;91.31
30875;BME280;17581;43.222;27.924;2023-04-19T04:15:54;100131.38;;;13.47;91.75
30875;BME280;17581;43.222;27.924;2023-04-19T04:18:19;100123.41;;;13.46;91.62
30875;BME280;17581;43.222;27.924;2023-04-19T04:20:45;100141.56;;;13.53;90.78
30875;BME280;17581;43.222;27.924;2023-04-19T04:23:10;100132.06;;;13.49;90.21
30875;BME280;17581;43.222;27.924;2023-04-19T04:25:36;100129.84;;;13.45;90.43
30875;BME280;17581;43.222;27.924;2023-04-19T04:28:04;100136.38;;;13.42;90.60
30875;BME280;17581;43.222;27.924;2023-04-19T04:30:30;100139.25;;;13.41;90.79
30875;BME280;17581;43.222;27.924;2023-04-19T04:32:56;100127.91;;;13.37;90.71
30875;BME280;17581;43.222;27.924;2023-04-19T04:35:24;100136.09;;;13.45;90.73
30875;BME280;17581;43.222;27.924;2023-04-19T04:37:51;100127.84;;;13.47;90.90
30875;BME280;17581;43.222;27.924;2023-04-19T04:40:20;100144.41;;;13.52;90.41
30875;BME280;17581;43.222;27.924;2023-04-19T04:42:45;100146.91;;;13.45;89.68
30875;BME280;17581;43.222;27.924;2023-04-19T04:45:11;100142.63;;;13.43;89.79
30875;BME280;17581;43.222;27.924;2023-04-19T04:47:37;100144.72;;;13.49;89.98
30875;BME280;17581;43.222;27.924;2023-04-19T04:50:03;100135.88;;;13.39;89.54
30875;BME280;17581;43.222;27.924;2023-04-19T04:52:29;100134.31;;;13.36;89.62
30875;BME280;17581;43.222;27.924;2023-04-19T04:54:54;100141.66;;;13.44;89.85
30875;BME280;17581;43.222;27.924;2023-04-19T04:57:20;100146.06;;;13.45;90.39
30875;BME280;17581;43.222;27.924;2023-04-19T04:59:45;100147.97;;;13.52;90.59
30875;BME280;17581;43.222;27.924;2023-04-19T05:02:13;100150.22;;;13.57;90.54
30875;BME280;17581;43.222;27.924;2023-04-19T05:04:38;100141.41;;;13.55;90.27
30875;BME280;17581;43.222;27.924;2023-04-19T05:07:04;100141.50;;;13.45;89.77
30875;BME280;17581;43.222;27.924;2023-04-19T05:09:29;100146.13;;;13.53;89.52
30875;BME280;17581;43.222;27.924;2023-04-19T05:11:55;100153.22;;;13.54;89.56
30875;BME280;17581;43.222;27.924;2023-04-19T05:14:20;100140.34;;;13.48;90.21
30875;BME280;17581;43.222;27.924;2023-04-19T05:16:46;100146.06;;;13.45;89.80
30875;BME280;17581;43.222;27.924;2023-04-19T05:19:11;100147.28;;;13.33;89.06
30875;BME280;17581;43.222;27.924;2023-04-19T05:21:37;100144.50;;;13.25;88.78
30875;BME280;17581;43.222;27.924;2023-04-19T05:24:02;100143.94;;;13.21;88.75
30875;BME280;17581;43.222;27.924;2023-04-19T05:26:28;100142.81;;;13.24;88.52
30875;BME280;17581;43.222;27.924;2023-04-19T05:28:53;100141.41;;;13.20;88.49
30875;BME280;17581;43.222;27.924;2023-04-19T05:31:19;100146.50;;;13.23;88.37
30875;BME280;17581;43.222;27.924;2023-04-19T05:33:45;100157.38;;;13.31;88.41
30875;BME280;17581;43.222;27.924;2023-04-19T05:36:10;100153.31;;;13.27;88.16
30875;BME280;17581;43.222;27.924;2023-04-19T05:38:36;100149.59;;;13.28;87.76
30875;BME280;17581;43.222;27.924;2023-04-19T05:41:04;100164.63;;;13.30;88.12
30875;BME280;17581;43.222;27.924;2023-04-19T05:43:29;100161.00;;;13.39;88.47
30875;BME280;17581;43.222;27.924;2023-04-19T05:45:55;100162.47;;;13.34;88.73
30875;BME280;17581;43.222;27.924;2023-04-19T05:48:20;100158.84;;;13.25;88.28
30875;BME280;17581;43.222;27.924;2023-04-19T05:50:46;100156.38;;;13.32;88.66
30875;BME280;17581;43.222;27.924;2023-04-19T05:53:11;100151.28;;;13.29;88.80
30875;BME280;17581;43.222;27.924;2023-04-19T05:55:37;100157.47;;;13.39;88.00
30875;BME280;17581;43.222;27.924;2023-04-19T05:58:02;100164.97;;;13.45;88.31
30875;BME280;17581;43.222;27.924;2023-04-19T06:00:28;100157.84;;;13.44;88.16
30875;BME280;17581;43.222;27.924;2023-04-19T06:02:53;100151.06;;;13.40;87.92
30875;BME280;17581;43.222;27.924;2023-04-19T06:05:19;100161.78;;;13.49;87.71
30875;BME280;17581;43.222;27.924;2023-04-19T06:07:44;100147.34;;;13.41;87.12
30875;BME280;17581;43.222;27.924;2023-04-19T06:10:10;100146.38;;;13.42;86.35
30875;BME280;17581;43.222;27.924;2023-04-19T06:12:35;100167.41;;;13.56;86.21
30875;BME280;17581;43.222;27.924;2023-04-19T06:15:00;100162.56;;;13.59;86.13
30875;BME280;17581;43.222;27.924;2023-04-19T06:17:26;100168.50;;;13.63;85.99
30875;BME280;17581;43.222;27.924;2023-04-19T06:19:52;100158.69;;;13.62;85.58
30875;BME280;17581;43.222;27.924;2023-04-19T06:22:18;100166.13;;;13.60;85.66
30875;BME280;17581;43.222;27.924;2023-04-19T06:24:44;100170.81;;;13.58;86.52
30875;BME280;17581;43.222;27.924;2023-04-19T06:27:10;100170.75;;;13.50;86.33
30875;BME280;17581;43.222;27.924;2023-04-19T06:29:36;100170.44;;;13.53;87.16
30875;BME280;17581;43.222;27.924;2023-04-19T06:32:01;100167.66;;;13.45;86.92
30875;BME280;17581;43.222;27.924;2023-04-19T06:34:26;100179.94;;;13.57;87.35
30875;BME280;17581;43.222;27.924;2023-04-19T06:36:52;100181.00;;;13.64;87.70
30875;BME280;17581;43.222;27.924;2023-04-19T06:39:17;100184.47;;;13.74;87.52
30875;BME280;17581;43.222;27.924;2023-04-19T06:41:43;100180.47;;;13.78;87.27
30875;BME280;17581;43.222;27.924;2023-04-19T06:44:08;100187.09;;;13.84;86.77
30875;BME280;17581;43.222;27.924;2023-04-19T06:46:34;100191.03;;;13.89;86.61
30875;BME280;17581;43.222;27.924;2023-04-19T06:48:59;100189.09;;;13.99;86.39
30875;BME280;17581;43.222;27.924;2023-04-19T06:51:25;100189.31;;;14.06;86.26
30875;BME280;17581;43.222;27.924;2023-04-19T06:53:51;100177.16;;;14.10;85.76
30875;BME280;17581;43.222;27.924;2023-04-19T06:56:16;100190.84;;;14.08;85.08
30875;BME280;17581;43.222;27.924;2023-04-19T06:58:41;100194.09;;;14.12;84.75
30875;BME280;17581;43.222;27.924;2023-04-19T07:01:07;100190.56;;;14.19;84.54
30875;BME280;17581;43.222;27.924;2023-04-19T07:03:32;100202.47;;;14.27;84.69
30875;BME280;17581;43.222;27.924;2023-04-19T07:05:58;100188.16;;;14.34;84.91
30875;BME280;17581;43.222;27.924;2023-04-19T07:08:24;100188.91;;;14.44;84.26
30875;BME280;17581;43.222;27.924;2023-04-19T07:10:49;100196.03;;;14.45;83.68
30875;BME280;17581;43.222;27.924;2023-04-19T07:13:15;100191.78;;;14.43;83.65
30875;BME280;17581;43.222;27.924;2023-04-19T07:15:40;100193.13;;;14.47;83.36
30875;BME280;17581;43.222;27.924;2023-04-19T07:18:06;100197.59;;;14.56;84.12
30875;BME280;17581;43.222;27.924;2023-04-19T07:20:31;100201.34;;;14.63;84.39
30875;BME280;17581;43.222;27.924;2023-04-19T07:22:58;100199.19;;;14.66;83.27
30875;BME280;17581;43.222;27.924;2023-04-19T07:25:23;100207.44;;;14.65;82.30
30875;BME280;17581;43.222;27.924;2023-04-19T07:27:51;100205.06;;;14.62;82.83
30875;BME280;17581;43.222;27.924;2023-04-19T07:30:17;100213.94;;;14.72;82.77
30875;BME280;17581;43.222;27.924;2023-04-19T07:32:43;100207.88;;;14.78;82.88
30875;BME280;17581;43.222;27.924;2023-04-19T07:35:08;100207.72;;;14.80;83.12
30875;BME280;17581;43.222;27.924;2023-04-19T07:37:34;100206.69;;;14.81;83.15
30875;BME280;17581;43.222;27.924;2023-04-19T07:39:59;100206.16;;;14.77;82.42
30875;BME280;17581;43.222;27.924;2023-04-19T07:42:25;100229.94;;;14.91;81.78
30875;BME280;17581;43.222;27.924;2023-04-19T07:44:50;100222.41;;;14.77;80.99
30875;BME280;17581;43.222;27.924;2023-04-19T07:47:16;100220.66;;;14.68;80.13
30875;BME280;17581;43.222;27.924;2023-04-19T07:49:41;100212.72;;;14.66;80.47
30875;BME280;17581;43.222;27.924;2023-04-19T07:52:08;100213.06;;;14.71;81.33
30875;BME280;17581;43.222;27.924;2023-04-19T07:54:34;100226.81;;;14.78;82.34
30875;BME280;17581;43.222;27.924;2023-04-19T07:57:00;100213.06;;;14.71;82.87
30875;BME280;17581;43.222;27.924;2023-04-19T07:59:26;100228.47;;;14.71;81.38
30875;BME280;17581;43.222;27.924;2023-04-19T08:01:52;100215.94;;;14.70;81.44
30875;BME280;17581;43.222;27.924;2023-04-19T08:04:17;100231.16;;;14.71;82.11
30875;BME280;17581;43.222;27.924;2023-04-19T08:06:44;100226.47;;;14.73;82.73
30875;BME280;17581;43.222;27.924;2023-04-19T08:09:09;100230.16;;;14.72;82.72
30875;BME280;17581;43.222;27.924;2023-04-19T08:11:35;100229.41;;;14.62;81.28
30875;BME280;17581;43.222;27.924;2023-04-19T08:14:01;100231.66;;;14.66;81.19
30875;BME280;17581;43.222;27.924;2023-04-19T08:16:26;100237.19;;;14.57;81.18
30875;BME280;17581;43.222;27.924;2023-04-19T08:18:52;100224.97;;;14.53;81.67
30875;BME280;17581;43.222;27.924;2023-04-19T08:21:17;100225.28;;;14.50;82.15
30875;BME280;17581;43.222;27.924;2023-04-19T08:23:43;100244.13;;;14.59;82.63
30875;BME280;17581;43.222;27.924;2023-04-19T08:26:09;100224.16;;;14.52;82.70
30875;BME280;17581;43.222;27.924;2023-04-19T08:28:34;100233.59;;;14.48;82.95
30875;BME280;17581;43.222;27.924;2023-04-19T08:31:00;100241.84;;;14.47;82.91
30875;BME280;17581;43.222;27.924;2023-04-19T08:33:29;100232.72;;;14.48;82.90
30875;BME280;17581;43.222;27.924;2023-04-19T08:35:55;100229.66;;;14.43;82.87
30875;BME280;17581;43.222;27.924;2023-04-19T08:38:20;100231.97;;;14.38;83.54
30875;BME280;17581;43.222;27.924;2023-04-19T08:40:50;100241.47;;;14.42;84.25
30875;BME280;17581;43.222;27.924;2023-04-19T08:43:16;100233.69;;;14.39;84.50
30875;BME280;17581;43.222;27.924;2023-04-19T08:45:45;100231.66;;;14.41;84.81
30875;BME280;17581;43.222;27.924;2023-04-19T08:48:14;100244.94;;;14.52;85.10
30875;BME280;17581;43.222;27.924;2023-04-19T08:50:40;100233.06;;;14.45;84.59
30875;BME280;17581;43.222;27.924;2023-04-19T08:53:09;100234.53;;;14.39;82.47
30875;BME280;17581;43.222;27.924;2023-04-19T08:55:39;100234.38;;;14.41;81.85
30875;BME280;17581;43.222;27.924;2023-04-19T08:58:05;100239.09;;;14.39;82.10
30875;BME280;17581;43.222;27.924;2023-04-19T09:00:32;100245.59;;;14.46;83.27
30875;BME280;17581;43.222;27.924;2023-04-19T09:02:58;100227.97;;;14.42;83.95
30875;BME280;17581;43.222;27.924;2023-04-19T09:05:23;100239.09;;;14.39;83.97
30875;BME280;17581;43.222;27.924;2023-04-19T09:07:49;100231.22;;;14.28;83.96
30875;BME280;17581;43.222;27.924;2023-04-19T09:10:17;100251.50;;;14.32;83.75
30875;BME280;17581;43.222;27.924;2023-04-19T09:12:59;100236.19;;;14.14;82.20
30875;BME280;17581;43.222;27.924;2023-04-19T09:15:38;100251.09;;;14.36;81.49
30875;BME280;17581;43.222;27.924;2023-04-19T09:18:06;100241.44;;;14.59;82.20
30875;BME280;17581;43.222;27.924;2023-04-19T09:20:37;100227.44;;;14.64;81.88
30875;BME280;17581;43.222;27.924;2023-04-19T09:23:04;100235.78;;;14.79;80.07
30875;BME280;17581;43.222;27.924;2023-04-19T09:25:30;100228.22;;;14.90;79.41
30875;BME280;17581;43.222;27.924;2023-04-19T09:28:08;100249.66;;;15.09;79.42
30875;BME280;17581;43.222;27.924;2023-04-19T09:30:34;100233.41;;;15.09;79.29
30875;BME280;17581;43.222;27.924;2023-04-19T09:32:59;100241.25;;;15.29;79.37
30875;BME280;17581;43.222;27.924;2023-04-19T09:35:50;100229.19;;;15.23;79.39
30875;BME280;17581;43.222;27.924;2023-04-19T09:38:15;100234.78;;;15.13;79.37
30875;BME280;17581;43.222;27.924;2023-04-19T09:40:41;100239.88;;;15.16;78.83
30875;BME280;17581;43.222;27.924;2023-04-19T09:43:07;100228.50;;;15.13;78.84
30875;BME280;17581;43.222;27.924;2023-04-19T09:48:06;100241.34;;;15.11;78.74
30875;BME280;17581;43.222;27.924;2023-04-19T09:50:32;100241.72;;;15.16;79.26
30875;BME280;17581;43.222;27.924;2023-04-19T09:52:58;100249.00;;;15.15;80.47
30875;BME280;17581;43.222;27.924;2023-04-19T09:55:25;100250.63;;;15.00;80.53
30875;BME280;17581;43.222;27.924;2023-04-19T09:57:51;100241.41;;;14.85;80.53
30875;BME280;17581;43.222;27.924;2023-04-19T10:00:17;100243.94;;;14.87;80.95
30875;BME280;17581;43.222;27.924;2023-04-19T10:02:43;100247.50;;;14.87;81.23
30875;BME280;17581;43.222;27.924;2023-04-19T10:05:11;100247.63;;;14.78;80.69
30875;BME280;17581;43.222;27.924;2023-04-19T10:07:39;100247.78;;;14.76;81.95
30875;BME280;17581;43.222;27.924;2023-04-19T10:10:06;100247.28;;;14.81;82.37
30875;BME280;17581;43.222;27.924;2023-04-19T10:12:34;100243.34;;;14.67;82.52
30875;BME280;17581;43.222;27.924;2023-04-19T10:14:59;100234.03;;;14.44;81.08
30875;BME280;17581;43.222;27.924;2023-04-19T10:17:25;100232.38;;;14.43;82.17
30875;BME280;17581;43.222;27.924;2023-04-19T10:20:03;100235.06;;;14.43;82.89
30875;BME280;17581;43.222;27.924;2023-04-19T10:22:35;100243.50;;;14.22;80.67
30875;BME280;17581;43.222;27.924;2023-04-19T10:25:11;100237.38;;;14.38;82.52
30875;BME280;17581;43.222;27.924;2023-04-19T10:27:38;100239.72;;;14.33;82.25
30875;BME280;17581;43.222;27.924;2023-04-19T10:30:04;100243.69;;;14.46;82.32
30875;BME280;17581;43.222;27.924;2023-04-19T10:32:39;100240.06;;;14.55;82.68
30875;BME280;17581;43.222;27.924;2023-04-19T10:35:09;100237.16;;;14.49;82.64
30875;BME280;17581;43.222;27.924;2023-04-19T10:37:41;100231.56;;;14.50;82.54
30875;BME280;17581;43.222;27.924;2023-04-19T10:43:19;100241.44;;;14.59;81.82
30875;BME280;17581;43.222;27.924;2023-04-19T10:45:46;100244.38;;;14.74;83.12
30875;BME280;17581;43.222;27.924;2023-04-19T10:51:17;100245.03;;;14.68;81.64
30875;BME280;17581;43.222;27.924;2023-04-19T11:01:35;100240.69;;;14.75;79.99
30875;BME280;17581;43.222;27.924;2023-04-19T11:04:04;100237.81;;;14.77;80.97
30875;BME280;17581;43.222;27.924;2023-04-19T11:06:31;100232.91;;;14.80;79.86
30875;BME280;17581;43.222;27.924;2023-04-19T11:08:56;100241.94;;;14.89;80.50
30875;BME280;17581;43.222;27.924;2023-04-19T11:11:22;100237.00;;;14.84;80.09
30875;BME280;17581;43.222;27.924;2023-04-19T11:13:50;100239.59;;;14.94;80.34
30875;BME280;17581;43.222;27.924;2023-04-19T11:16:15;100245.66;;;14.88;80.80
30875;BME280;17581;43.222;27.924;2023-04-19T11:18:41;100250.13;;;14.71;80.39
30875;BME280;17581;43.222;27.924;2023-04-19T11:21:12;100244.31;;;14.58;80.70
30875;BME280;17581;43.222;27.924;2023-04-19T11:23:39;100247.84;;;14.33;79.06
30875;BME280;17581;43.222;27.924;2023-04-19T11:26:05;100235.91;;;14.26;80.05
30875;BME280;17581;43.222;27.924;2023-04-19T11:28:34;100242.16;;;14.44;80.84
30875;BME280;17581;43.222;27.924;2023-04-19T11:30:59;100243.19;;;14.43;80.61
30875;BME280;17581;43.222;27.924;2023-04-19T11:33:25;100252.13;;;14.43;81.03
30875;BME280;17581;43.222;27.924;2023-04-19T11:35:52;100250.56;;;14.33;80.06
30875;BME280;17581;43.222;27.924;2023-04-19T11:38:18;100239.34;;;14.10;79.92
30875;BME280;17581;43.222;27.924;2023-04-19T11:40:44;100244.25;;;14.06;80.31
30875;BME280;17581;43.222;27.924;2023-04-19T11:43:09;100248.47;;;14.09;81.15
30875;BME280;17581;43.222;27.924;2023-04-19T11:45:36;100249.09;;;14.03;81.37
30875;BME280;17581;43.222;27.924;2023-04-19T11:48:06;100236.59;;;13.84;81.23
30875;BME280;17581;43.222;27.924;2023-04-19T11:50:40;100243.63;;;13.77;81.50
30875;BME280;17581;43.222;27.924;2023-04-19T11:56:04;100246.25;;;13.69;82.86
30875;BME280;17581;43.222;27.924;2023-04-19T12:01:15;100245.16;;;13.80;83.53
30875;BME280;17581;43.222;27.924;2023-04-19T12:03:49;100238.81;;;13.89;83.56
30875;BME280;17581;43.222;27.924;2023-04-19T12:06:29;100242.16;;;14.00;83.25
30875;BME280;17581;43.222;27.924;2023-04-19T12:08:58;100243.22;;;14.07;82.94
30875;BME280;17581;43.222;27.924;2023-04-19T12:11:25;100229.47;;;14.01;81.93
30875;BME280;17581;43.222;27.924;2023-04-19T12:14:26;100236.34;;;13.95;81.11
30875;BME280;17581;43.222;27.924;2023-04-19T12:17:11;100231.25;;;13.92;81.61
30875;BME280;17581;43.222;27.924;2023-04-19T12:19:45;100235.41;;;14.04;81.65
30875;BME280;17581;43.222;27.924;2023-04-19T12:22:18;100220.50;;;14.18;81.74
30875;BME280;17581;43.222;27.924;2023-04-19T12:24:51;100227.16;;;14.32;81.17
30875;BME280;17581;43.222;27.924;2023-04-19T12:27:20;100210.53;;;14.44;80.35
30875;BME280;17581;43.222;27.924;2023-04-19T12:29:45;100211.53;;;14.43;79.20
30875;BME280;17581;43.222;27.924;2023-04-19T12:32:11;100208.41;;;14.56;79.96
30875;BME280;17581;43.222;27.924;2023-04-19T12:34:37;100226.13;;;14.76;79.92
30875;BME280;17581;43.222;27.924;2023-04-19T12:37:02;100208.22;;;14.83;78.99
30875;BME280;17581;43.222;27.924;2023-04-19T12:39:31;100218.44;;;14.97;77.25
30875;BME280;17581;43.222;27.924;2023-04-19T12:41:56;100213.31;;;14.86;76.17
30875;BME280;17581;43.222;27.924;2023-04-19T12:44:22;100217.19;;;14.84;77.04
30875;BME280;17581;43.222;27.924;2023-04-19T12:46:47;100207.44;;;14.65;76.75
30875;BME280;17581;43.222;27.924;2023-04-19T12:49:13;100223.56;;;14.75;77.95
30875;BME280;17581;43.222;27.924;2023-04-19T12:51:38;100217.41;;;14.90;78.22
30875;BME280;17581;43.222;27.924;2023-04-19T12:54:06;100210.88;;;15.09;77.71
30875;BME280;17581;43.222;27.924;2023-04-19T12:56:32;100214.97;;;15.21;75.42
30875;BME280;17581;43.222;27.924;2023-04-19T12:58:57;100219.41;;;15.38;75.36